FWCO2: Wolf Creek nr Ft. Supply 9S

Data processed at Mon Jul 22 2019 23:50


All information presented herein is the property of the government of the United States of America and may be revised or deleted at any time without prior notice.
Dissemination of this information without the expressed written consent of the Public Affairs Office, Tulsa District U.S. Army Corps of Engineers is strictly prohibited.
These data are gathered electronically and, as presented, have not undergone any form of quality control. These data are not guaranteed to be valid or correct.
Go to home page.
Go to station list.
Go to home page.

Upstream stations:

Downstream station:
Previous Day
Next Day
Current Day
    
SHEF ID:       FWCO2     Wolf Creek nr Ft. Supply 9S
STATION TYPE:  

               PRECIP     STAGE  RIV-FLOW   VOLTAGE  BAT-LOAD
                   in        ft       cfs      volt      volt
              Ccp-Rev   Ccp-Rev   Ccp-Rev   Ccp-Rev   Ccp-Rev
(US/Central)
07/22 00:00      0.00      7.43       128     12.65     12.57
07/22 01:00      0.00      7.40       125     12.65     12.57
07/22 02:00      0.00      7.45       130     12.57     12.57
07/22 03:00      0.00      7.47       132     12.57     12.49
07/22 04:00      0.00      7.45       130     12.57     12.49
07/22 05:00      0.00      7.35       120     12.57     12.49
07/22 06:00      0.00      7.44       129     12.57     12.49
07/22 07:00      0.00      7.43       128     12.57     12.49
07/22 08:00      0.00      7.41       126     12.73     12.41
07/22 09:00      0.00      7.37       122     12.81     12.65
07/22 10:00      0.00      7.32       117     13.21     12.73
07/22 11:00      0.00      7.38       123     14.00     13.13
07/22 12:00      0.00      7.45       130     14.00     13.29
07/22 13:00      0.00      7.38       123     13.92     12.97
07/22 14:00      0.00      7.47       132     13.84     12.97
07/22 15:00      0.00      7.30       116     13.68     13.13
07/22 16:00      0.00      7.31       117     13.68     12.81
07/22 17:00      0.00      7.25       111     13.68     12.89
07/22 18:00      0.00      7.25       111     13.60     12.81
07/22 19:00      0.00      7.24       110     13.53     12.73
07/22 20:00      0.00      7.26       112     12.73     12.73
07/22 21:00      0.00      7.23       110     12.65     12.65
07/22 22:00      0.00      7.30       116     12.65     12.57
07/22 23:00      0.00      7.23       110     12.65     12.57